Time;durP1;ratioP1;P1;durP2;ratioP2;P2;SDS_P1;SDS_P2;PMS_P1;PMS_P2;Temp;Humidity;BMP_temperature;BMP_pressure;BME280_temperature;BME280_humidity;BME280_pressure;Samples;Min_cycle;Max_cycle;Signal;HPM_P1;HPM_P2
2021/01/20 00:00:16;;;;;;;7.80;5.45;;;16.40;40.30;;;;;;6131058;23;20137;-84
2021/01/20 00:02:42;;;;;;;7.20;5.10;;;16.30;40.30;;;;;;6105387;23;20140;-81
2021/01/20 00:05:11;;;;;;;7.70;5.22;;;16.30;40.50;;;;;;6131474;23;20136;-81
2021/01/20 00:07:37;;;;;;;7.85;5.68;;;16.30;40.40;;;;;;6131561;23;20481;-81
2021/01/20 00:10:05;;;;;;;7.78;5.32;;;16.30;40.50;;;;;;6131840;23;20461;-81
2021/01/20 00:12:31;;;;;;;8.18;5.57;;;16.40;40.50;;;;;;6105130;23;20137;-81
2021/01/20 00:14:59;;;;;;;8.30;6.20;;;16.30;40.40;;;;;;6132073;23;20137;-81
2021/01/20 00:17:25;;;;;;;7.47;5.43;;;16.30;40.50;;;;;;6105297;23;20144;-81
2021/01/20 00:19:51;;;;;;;7.63;5.30;;;16.30;40.40;;;;;;6130868;23;20662;-81
2021/01/20 00:22:18;;;;;;;7.15;5.05;;;16.30;40.50;;;;;;6131543;23;20193;-81
2021/01/20 00:24:44;;;;;;;6.55;4.88;;;16.30;40.50;;;;;;6104778;23;20553;-82
2021/01/20 00:27:10;;;;;;;7.20;5.47;;;16.30;40.50;;;;;;6104668;23;20144;-81
2021/01/20 00:29:37;;;;;;;8.32;5.72;;;16.30;40.40;;;;;;6105077;23;20167;-81
2021/01/20 00:32:03;;;;;;;7.45;5.47;;;16.30;40.50;;;;;;6080952;23;20180;-81
2021/01/20 00:34:30;;;;;;;7.55;5.55;;;16.30;40.40;;;;;;6104734;23;20136;-81
2021/01/20 00:36:57;;;;;;;7.45;5.43;;;16.40;40.40;;;;;;6131067;23;20140;-81
2021/01/20 00:39:23;;;;;;;6.63;4.85;;;16.30;40.40;;;;;;6130766;23;20215;-81
2021/01/20 00:41:49;;;;;;;8.80;5.47;;;16.30;40.50;;;;;;6131060;23;20171;-81
2021/01/20 00:44:15;;;;;;;7.78;5.70;;;16.30;40.60;;;;;;6131448;23;20148;-81
2021/01/20 00:46:41;;;;;;;7.93;5.40;;;16.30;40.60;;;;;;6130944;23;20137;-81
2021/01/20 00:49:08;;;;;;;8.63;6.03;;;16.30;40.50;;;;;;6130560;23;20192;-81
2021/01/20 00:51:43;;;;;;;8.25;5.43;;;16.30;40.70;;;;;;6104731;23;20194;-81
2021/01/20 00:54:10;;;;;;;7.70;5.30;;;16.30;40.50;;;;;;6105156;23;20212;-81
2021/01/20 00:56:36;;;;;;;8.02;5.60;;;16.30;40.50;;;;;;6104498;23;20553;-81
2021/01/20 00:59:02;;;;;;;6.68;5.00;;;16.30;40.50;;;;;;6104742;23;20192;-81
2021/01/20 01:01:29;;;;;;;8.07;5.63;;;16.30;40.60;;;;;;6130858;23;20186;-81
2021/01/20 01:03:55;;;;;;;7.80;5.30;;;16.30;40.70;;;;;;6104228;23;20627;-81
2021/01/20 01:06:21;;;;;;;8.05;5.65;;;16.20;40.60;;;;;;6104707;23;20132;-81
2021/01/20 01:08:48;;;;;;;7.30;5.45;;;16.30;40.60;;;;;;6130636;23;20144;-81
2021/01/20 01:11:14;;;;;;;8.13;5.55;;;16.30;40.60;;;;;;6131031;23;20137;-81
2021/01/20 01:13:41;;;;;;;6.93;5.28;;;16.20;40.60;;;;;;6130799;23;20136;-81
2021/01/20 01:16:15;;;;;;;7.88;5.22;;;16.30;40.70;;;;;;6104401;23;20160;-81
2021/01/20 01:18:42;;;;;;;7.53;5.30;;;16.30;40.60;;;;;;6130298;23;20174;-81
2021/01/20 01:21:09;;;;;;;7.55;5.72;;;16.20;41.00;;;;;;6130911;23;20148;-81
2021/01/20 01:23:35;;;;;;;7.43;5.45;;;16.20;40.80;;;;;;6104551;23;20568;-81
2021/01/20 01:26:02;;;;;;;7.45;5.35;;;16.20;40.70;;;;;;6131110;23;20155;-81
2021/01/20 01:28:28;;;;;;;8.27;5.45;;;16.20;40.70;;;;;;6104437;23;20568;-81
2021/01/20 01:31:02;;;;;;;7.65;5.82;;;16.20;40.70;;;;;;6130709;23;20132;-81
2021/01/20 01:33:31;;;;;;;7.63;5.45;;;16.20;40.70;;;;;;6130202;23;20150;-81
2021/01/20 01:35:58;;;;;;;7.28;5.30;;;16.20;40.80;;;;;;6130457;23;20223;-81
2021/01/20 01:38:24;;;;;;;6.95;5.35;;;16.20;40.80;;;;;;6130374;23;20191;-81
2021/01/20 01:40:51;;;;;;;8.07;5.60;;;16.20;41.50;;;;;;6104551;23;20589;-81
2021/01/20 01:43:17;;;;;;;7.28;5.13;;;16.20;40.80;;;;;;6130552;23;20634;-81
2021/01/20 01:45:43;;;;;;;7.97;5.47;;;16.20;40.80;;;;;;6130712;23;20512;-81
2021/01/20 01:48:11;;;;;;;7.40;5.38;;;16.20;40.80;;;;;;6103975;23;20171;-81
2021/01/20 01:50:36;;;;;;;7.07;5.13;;;16.20;40.70;;;;;;6130239;23;20136;-81
2021/01/20 01:53:03;;;;;;;7.25;5.07;;;16.20;40.80;;;;;;6103719;23;20584;-81
2021/01/20 01:55:30;;;;;;;8.93;5.68;;;16.20;40.80;;;;;;6104280;23;20211;-81
2021/01/20 01:57:56;;;;;;;7.75;5.18;;;16.20;40.80;;;;;;6080036;23;20486;-81
2021/01/20 02:00:23;;;;;;;8.00;5.60;;;16.20;40.80;;;;;;6104115;23;20141;-81
2021/01/20 02:02:49;;;;;;;7.47;4.90;;;16.20;40.90;;;;;;6130842;23;20211;-81
2021/01/20 02:05:17;;;;;;;7.95;5.88;;;16.20;40.80;;;;;;6130661;23;20557;-81
2021/01/20 02:07:47;;;;;;;7.47;5.32;;;16.20;40.90;;;;;;6130191;23;20136;-81
2021/01/20 02:10:13;;;;;;;6.93;5.05;;;16.20;40.80;;;;;;6104085;23;20143;-82
2021/01/20 02:12:48;;;;;;;7.88;5.60;;;16.20;41.00;;;;;;6130046;23;20187;-81
2021/01/20 02:15:37;;;;;;;8.65;5.72;;;16.20;41.00;;;;;;6130751;23;20186;-81
2021/01/20 02:18:07;;;;;;;9.05;5.80;;;16.20;41.00;;;;;;6126819;23;20175;-81
2021/01/20 02:20:57;;;;;;;8.38;5.70;;;16.20;41.00;;;;;;6105426;23;20584;-81
2021/01/20 02:23:23;;;;;;;8.25;5.75;;;16.10;41.00;;;;;;6132266;23;20132;-81
2021/01/20 02:26:07;;;;;;;8.07;5.65;;;16.10;41.00;;;;;;6081857;23;20144;-81
2021/01/20 02:28:40;;;;;;;7.00;5.43;;;16.10;41.00;;;;;;6131897;23;20140;-81
2021/01/20 02:31:07;;;;;;;6.57;4.95;;;16.10;41.10;;;;;;6132105;23;20142;-81
2021/01/20 02:33:34;;;;;;;7.25;5.55;;;16.10;41.00;;;;;;6105708;23;20215;-81
2021/01/20 02:36:03;;;;;;;8.00;5.72;;;16.10;41.00;;;;;;6131927;23;20148;-81
2021/01/20 02:38:29;;;;;;;7.35;5.63;;;16.20;41.00;;;;;;6131320;23;20214;-81
2021/01/20 02:41:03;;;;;;;7.95;5.53;;;16.10;41.00;;;;;;6105668;23;20152;-81
2021/01/20 02:43:29;;;;;;;7.53;5.45;;;16.10;41.10;;;;;;6132104;23;20143;-82
2021/01/20 02:45:55;;;;;;;7.45;5.35;;;16.10;41.10;;;;;;6131587;23;20140;-81
2021/01/20 02:48:22;;;;;;;8.43;5.80;;;16.10;41.10;;;;;;6132322;23;20174;-81
2021/01/20 02:50:57;;;;;;;7.68;5.40;;;16.10;41.00;;;;;;6131986;23;20224;-81
2021/01/20 02:53:31;;;;;;;8.20;5.38;;;16.20;41.10;;;;;;6105897;23;20140;-81
2021/01/20 02:56:00;;;;;;;7.72;5.40;;;16.10;41.10;;;;;;6081300;23;20589;-81
2021/01/20 02:58:38;;;;;;;8.43;5.97;;;16.10;41.20;;;;;;6105914;23;20179;-81
2021/01/20 03:01:04;;;;;;;7.25;4.78;;;16.10;41.10;;;;;;6105509;23;20140;-81
2021/01/20 03:03:39;;;;;;;7.00;5.13;;;16.10;41.10;;;;;;6131882;23;20148;-81
2021/01/20 03:06:06;;;;;;;8.63;5.80;;;16.10;41.10;;;;;;6106444;23;20140;-81
2021/01/20 03:08:32;;;;;;;8.68;5.60;;;16.10;41.10;;;;;;6105559;23;20183;-81
2021/01/20 03:11:05;;;;;;;6.88;5.32;;;16.10;41.10;;;;;;6105764;23;20581;-81
2021/01/20 03:13:35;;;;;;;7.10;5.40;;;16.20;41.10;;;;;;6131435;23;20211;-81
2021/01/20 03:16:02;;;;;;;8.30;5.57;;;16.10;41.10;;;;;;6131411;23;20136;-81
2021/01/20 03:18:29;;;;;;;8.52;5.45;;;16.20;41.10;;;;;;6105480;23;20263;-81
2021/01/20 03:21:04;;;;;;;7.93;5.57;;;16.10;41.10;;;;;;6131406;23;20160;-81
2021/01/20 03:23:39;;;;;;;7.38;5.45;;;16.10;41.10;;;;;;6081193;23;20136;-81
2021/01/20 03:26:05;;;;;;;7.95;5.80;;;16.10;41.20;;;;;;6131116;23;20219;-81
2021/01/20 03:28:31;;;;;;;8.35;5.50;;;16.10;41.20;;;;;;6130870;23;20163;-81
2021/01/20 03:30:58;;;;;;;7.68;5.50;;;16.10;41.20;;;;;;6130617;23;20136;-81
2021/01/20 03:33:25;;;;;;;8.15;5.68;;;16.10;41.20;;;;;;6129793;23;20141;-81
2021/01/20 03:35:51;;;;;;;8.00;5.53;;;16.10;41.10;;;;;;6079685;23;20520;-81
2021/01/20 03:38:17;;;;;;;7.55;5.30;;;16.10;41.10;;;;;;6128859;23;20199;-81
2021/01/20 03:40:43;;;;;;;6.80;5.22;;;16.10;41.20;;;;;;6129872;23;20144;-81
2021/01/20 03:43:10;;;;;;;8.38;5.38;;;16.10;41.20;;;;;;6130042;23;20197;-81
2021/01/20 03:45:36;;;;;;;7.40;5.32;;;16.10;41.20;;;;;;6130732;23;20136;-81
2021/01/20 03:48:04;;;;;;;6.50;5.07;;;16.10;41.30;;;;;;6131029;23;20164;-81
2021/01/20 03:50:30;;;;;;;6.65;5.05;;;16.10;41.30;;;;;;6080147;23;20179;-81
2021/01/20 03:52:57;;;;;;;8.07;5.55;;;16.10;41.20;;;;;;6129946;23;20139;-81
2021/01/20 03:55:24;;;;;;;7.28;5.30;;;16.10;41.40;;;;;;6130093;23;20128;-81
2021/01/20 03:57:50;;;;;;;6.53;4.95;;;16.10;41.20;;;;;;6130247;23;20196;-81
2021/01/20 04:00:19;;;;;;;7.35;5.13;;;16.10;41.30;;;;;;6103996;23;20133;-82
2021/01/20 04:02:45;;;;;;;7.68;5.35;;;16.10;41.30;;;;;;6129954;23;20137;-81
2021/01/20 04:05:13;;;;;;;7.43;5.38;;;16.10;41.30;;;;;;6129689;23;20136;-81
2021/01/20 04:07:40;;;;;;;7.75;5.45;;;16.10;41.30;;;;;;6130374;23;20144;-81
2021/01/20 04:10:08;;;;;;;7.68;5.72;;;16.10;41.30;;;;;;6129633;23;20136;-81
2021/01/20 04:12:36;;;;;;;9.23;6.00;;;16.10;41.30;;;;;;6104056;23;20167;-81
2021/01/20 04:15:07;;;;;;;7.47;5.03;;;16.10;41.30;;;;;;6103702;23;20143;-81
2021/01/20 04:17:34;;;;;;;7.80;5.43;;;16.10;41.30;;;;;;6103804;23;20548;-81
2021/01/20 04:20:00;;;;;;;7.43;5.45;;;16.10;41.30;;;;;;6129916;23;20167;-81
2021/01/20 04:22:27;;;;;;;7.53;5.25;;;16.10;41.30;;;;;;6129837;23;20133;-81
2021/01/20 04:24:54;;;;;;;7.97;5.50;;;16.10;41.30;;;;;;6129658;23;20155;-81
2021/01/20 04:27:20;;;;;;;7.82;5.47;;;16.10;41.40;;;;;;6129798;23;20140;-81
2021/01/20 04:29:54;;;;;;;7.95;5.53;;;16.10;41.20;;;;;;6103458;23;20223;-81
2021/01/20 04:32:20;;;;;;;7.38;5.57;;;16.10;41.40;;;;;;6129691;23;20140;-81
2021/01/20 04:34:46;;;;;;;7.82;5.55;;;16.00;41.30;;;;;;6128894;23;20138;-81
2021/01/20 04:37:12;;;;;;;7.32;5.55;;;16.10;41.30;;;;;;6103696;23;20140;-81
2021/01/20 04:39:46;;;;;;;8.35;5.72;;;16.10;41.40;;;;;;6128931;23;20294;-81
2021/01/20 04:42:14;;;;;;;8.65;5.65;;;16.10;41.40;;;;;;6129375;23;20142;-81
2021/01/20 04:44:40;;;;;;;7.72;5.70;;;16.00;41.40;;;;;;6129995;23;20183;-81
2021/01/20 04:47:07;;;;;;;7.80;5.55;;;16.00;41.40;;;;;;6129106;23;20588;-81
2021/01/20 04:49:41;;;;;;;7.53;5.38;;;16.00;41.40;;;;;;6103360;23;20133;-80
2021/01/20 04:52:08;;;;;;;7.38;5.60;;;16.10;41.50;;;;;;6103284;23;20562;-81
2021/01/20 04:54:35;;;;;;;8.02;5.55;;;16.10;41.40;;;;;;6103375;23;20215;-81
2021/01/20 04:57:03;;;;;;;7.30;5.43;;;16.10;41.50;;;;;;6103319;23;20159;-81
2021/01/20 04:59:37;;;;;;;9.32;5.88;;;16.10;41.30;;;;;;6129814;23;20250;-81
2021/01/20 05:02:03;;;;;;;7.82;5.53;;;16.20;41.00;;;;;;6103380;23;20132;-81
2021/01/20 05:04:30;;;;;;;8.63;6.03;;;16.20;41.00;;;;;;6102714;23;20212;-81
2021/01/20 05:06:56;;;;;;;8.15;5.80;;;16.30;40.80;;;;;;6102101;23;20160;-81
2021/01/20 05:09:23;;;;;;;8.68;5.90;;;16.30;40.90;;;;;;6103424;23;20140;-81
2021/01/20 05:11:49;;;;;;;7.72;5.55;;;16.30;40.90;;;;;;6129901;23;20160;-81
2021/01/20 05:14:17;;;;;;;8.52;5.82;;;16.20;40.90;;;;;;6104543;23;20271;-81
2021/01/20 05:16:49;;;;;;;8.52;5.70;;;16.20;41.00;;;;;;6130228;23;20155;-81
2021/01/20 05:19:53;;;;;;;7.82;5.60;;;16.30;41.00;;;;;;6130589;23;20558;-81
2021/01/20 05:22:19;;;;;;;7.88;5.70;;;16.30;40.90;;;;;;6126556;23;20164;-82
2021/01/20 05:24:46;;;;;;;9.27;5.90;;;16.30;40.80;;;;;;6129691;23;20576;-81
2021/01/20 05:27:12;;;;;;;8.68;5.82;;;16.40;40.80;;;;;;6103920;23;20152;-81
2021/01/20 05:29:39;;;;;;;8.30;5.97;;;16.40;41.40;;;;;;6103423;23;20140;-81
2021/01/20 05:32:16;;;;;;;8.80;5.80;;;16.40;40.70;;;;;;6129072;23;20151;-82
2021/01/20 05:34:42;;;;;;;8.52;6.18;;;16.40;40.70;;;;;;6129330;23;20136;-81
2021/01/20 05:37:17;;;;;;;8.52;6.18;;;16.30;40.80;;;;;;6103339;23;20163;-81
2021/01/20 05:39:44;;;;;;;8.50;5.75;;;16.40;40.70;;;;;;6128198;23;20207;-81
2021/01/20 05:42:12;;;;;;;8.55;5.95;;;16.40;40.70;;;;;;6103363;23;20136;-81
2021/01/20 05:44:39;;;;;;;8.30;5.88;;;16.30;40.70;;;;;;6129327;23;20467;-81
2021/01/20 05:47:12;;;;;;;9.15;6.32;;;16.40;40.70;;;;;;6102975;23;20144;-81
2021/01/20 05:49:38;;;;;;;7.55;5.82;;;16.40;40.50;;;;;;6103026;23;20583;-81
2021/01/20 05:52:13;;;;;;;7.75;6.00;;;16.40;40.50;;;;;;6128569;23;20222;-81
2021/01/20 05:54:40;;;;;;;8.55;6.05;;;16.40;40.60;;;;;;6128339;23;20631;-81
2021/01/20 05:57:13;;;;;;;8.40;6.05;;;16.40;40.60;;;;;;6129312;23;20219;-82
2021/01/20 05:59:50;;;;;;;9.68;6.20;;;16.40;40.60;;;;;;6129457;23;20191;-81
2021/01/20 06:02:17;;;;;;;9.57;6.25;;;16.40;40.60;;;;;;6079111;23;20144;-82
2021/01/20 06:04:44;;;;;;;8.25;5.82;;;16.40;41.30;;;;;;6128668;23;20585;-82
2021/01/20 06:07:11;;;;;;;8.80;6.05;;;16.40;40.70;;;;;;6128106;23;20132;-82
2021/01/20 06:09:46;;;;;;;10.15;6.25;;;16.40;40.70;;;;;;6129678;23;20146;-82
2021/01/20 06:12:14;;;;;;;9.40;6.45;;;16.40;40.60;;;;;;6103624;23;20136;-81
2021/01/20 06:14:40;;;;;;;9.27;6.13;;;16.40;40.60;;;;;;6103016;23;20564;-81
2021/01/20 06:17:31;;;;;;;10.20;6.00;;;16.40;40.70;;;;;;6103375;23;20140;-83
2021/01/20 06:20:12;;;;;;;9.38;6.40;;;16.40;40.70;;;;;;6102346;23;20171;-81
2021/01/20 06:22:45;;;;;;;10.00;6.40;;;16.50;40.60;;;;;;6103043;23;20561;-82
2021/01/20 06:25:20;;;;;;;10.25;7.00;;;16.50;40.40;;;;;;6103297;23;20237;-81
2021/01/20 06:28:08;;;;;;;9.93;6.88;;;16.50;40.40;;;;;;6081738;23;20140;-81
2021/01/20 06:30:40;;;;;;;10.75;6.80;;;16.50;40.40;;;;;;6128960;23;20163;-82
2021/01/20 06:33:07;;;;;;;9.65;6.28;;;16.60;40.30;;;;;;6055858;23;20544;-82
2021/01/20 06:35:42;;;;;;;10.00;6.72;;;16.60;40.40;;;;;;6055704;23;20465;-81
2021/01/20 06:38:40;;;;;;;9.50;6.40;;;16.60;40.30;;;;;;6104335;23;20190;-81
2021/01/20 06:41:09;;;;;;;10.27;6.93;;;16.60;40.20;;;;;;5988873;23;20187;-82
2021/01/20 06:43:44;;;;;;;10.70;6.90;;;16.60;40.40;;;;;;6014892;23;20151;-81
2021/01/20 06:46:15;;;;;;;9.52;6.53;;;16.50;40.30;;;;;;6012463;23;20151;-82
2021/01/20 06:48:57;;;;;;;10.75;6.78;;;16.50;40.50;;;;;;5989096;23;20162;-82
2021/01/20 06:51:28;;;;;;;10.23;6.68;;;16.50;40.50;;;;;;6012137;23;20163;-81
2021/01/20 06:54:00;;;;;;;9.02;6.80;;;16.50;40.50;;;;;;5988976;23;20148;-81
2021/01/20 06:56:31;;;;;;;9.60;6.90;;;16.50;40.40;;;;;;6012553;23;20173;-82
2021/01/20 06:59:25;;;;;;;10.55;6.95;;;16.60;40.50;;;;;;6012623;23;20258;-81
2021/01/20 07:02:11;;;;;;;11.27;7.00;;;16.60;40.50;;;;;;6013608;23;20240;-82
2021/01/20 07:04:37;;;;;;;9.80;7.00;;;16.50;40.60;;;;;;6015146;23;20183;-82
2021/01/20 07:07:44;;;;;;;10.32;6.78;;;16.50;40.60;;;;;;6017104;23;20218;-81
2021/01/20 07:10:19;;;;;;;12.20;7.43;;;16.60;41.20;;;;;;6018545;23;20151;-81
2021/01/20 07:13:23;;;;;;;10.75;7.30;;;16.50;40.50;;;;;;6017971;23;20145;-81
2021/01/20 07:15:51;;;;;;;10.80;7.20;;;16.60;40.50;;;;;;6032061;23;20167;-81
2021/01/20 07:18:18;;;;;;;11.07;6.93;;;16.60;40.40;;;;;;6109652;23;20533;-84
2021/01/20 07:20:53;;;;;;;10.68;7.70;;;16.60;40.50;;;;;;6109169;23;20148;-81
2021/01/20 07:23:20;;;;;;;12.48;7.57;;;16.60;40.40;;;;;;6136183;23;20140;-82
2021/01/20 07:25:55;;;;;;;11.70;7.32;;;16.60;40.30;;;;;;6109907;23;20448;-81
2021/01/20 07:28:24;;;;;;;11.32;7.65;;;16.60;40.40;;;;;;6136241;23;20475;-81
2021/01/20 07:31:14;;;;;;;11.27;7.55;;;16.60;40.40;;;;;;6136448;23;20145;-81
2021/01/20 07:34:00;;;;;;;11.80;7.57;;;16.50;40.50;;;;;;6136533;23;20226;-82
2021/01/20 07:36:28;;;;;;;13.43;8.38;;;16.50;40.50;;;;;;6137499;23;20136;-82
2021/01/20 07:38:53;;;;;;;10.77;7.07;;;16.50;40.50;;;;;;6109738;23;20215;-83
2021/01/20 07:41:29;;;;;;;11.82;7.72;;;16.60;40.50;;;;;;6088559;23;20159;-83
2021/01/20 07:44:06;;;;;;;11.00;7.65;;;16.60;40.50;;;;;;6112623;23;20128;-81
2021/01/20 07:46:36;;;;;;;11.40;7.00;;;16.50;40.50;;;;;;6110719;23;20138;-81
2021/01/20 07:49:12;;;;;;;11.60;7.63;;;16.50;40.60;;;;;;6135647;23;20187;-82
2021/01/20 07:51:39;;;;;;;11.25;7.45;;;16.50;40.70;;;;;;6107871;23;20150;-81
2021/01/20 07:54:06;;;;;;;11.57;7.50;;;16.60;40.50;;;;;;6108901;23;20136;-82
2021/01/20 07:56:32;;;;;;;11.38;7.80;;;16.60;40.50;;;;;;6109008;23;20147;-81
2021/01/20 07:59:15;;;;;;;11.45;7.60;;;16.70;40.40;;;;;;6133655;23;20507;-81
2021/01/20 08:01:42;;;;;;;12.23;7.85;;;16.70;40.30;;;;;;6133624;23;20508;-81
2021/01/20 08:04:38;;;;;;;10.95;7.22;;;16.70;40.30;;;;;;6105036;23;20516;-81
2021/01/20 08:07:05;;;;;;;12.90;8.05;;;16.70;40.50;;;;;;6011618;23;20154;-81
2021/01/20 08:09:38;;;;;;;11.23;7.70;;;16.70;40.40;;;;;;6016738;23;20145;-81
2021/01/20 08:12:27;;;;;;;11.95;8.38;;;16.80;40.50;;;;;;6013644;23;20154;-81
2021/01/20 08:15:14;;;;;;;10.60;7.25;;;16.70;40.30;;;;;;6013522;23;20143;-81
2021/01/20 08:18:00;;;;;;;11.43;8.10;;;16.70;40.40;;;;;;6012908;23;20218;-81
2021/01/20 08:20:47;;;;;;;11.15;7.15;;;16.60;40.30;;;;;;6014084;23;20236;-82
2021/01/20 08:23:47;;;;;;;11.93;7.60;;;16.70;40.50;;;;;;6012378;23;20150;-81
2021/01/20 08:26:51;;;;;;;13.02;8.20;;;16.70;40.30;;;;;;6021160;23;20147;-84
2021/01/20 08:30:07;;;;;;;11.55;7.65;;;16.70;40.30;;;;;;6019025;23;20166;-82
2021/01/20 08:32:53;;;;;;;11.55;8.23;;;16.80;40.30;;;;;;6015150;23;20158;-81
2021/01/20 08:35:40;;;;;;;11.63;7.95;;;16.80;40.30;;;;;;6013979;23;20146;-82
2021/01/20 08:38:06;;;;;;;11.40;7.97;;;16.80;40.10;;;;;;5991326;23;20326;-82
2021/01/20 08:40:54;;;;;;;11.88;7.68;;;16.80;40.20;;;;;;5968289;23;20138;-81
2021/01/20 08:43:24;;;;;;;10.57;7.60;;;16.80;40.20;;;;;;6043170;23;20327;-82
2021/01/20 08:45:50;;;;;;;12.10;7.97;;;16.80;40.20;;;;;;6103627;23;20267;-82
2021/01/20 08:48:16;;;;;;;12.70;8.18;;;16.80;40.20;;;;;;6130431;23;20144;-81
2021/01/20 08:50:47;;;;;;;11.32;8.02;;;16.80;40.30;;;;;;6104071;23;20211;-82
2021/01/20 08:53:29;;;;;;;13.18;8.38;;;16.80;40.10;;;;;;6130244;23;20144;-82
2021/01/20 08:55:56;;;;;;;11.77;7.95;;;16.80;40.20;;;;;;6130302;23;20137;-82
2021/01/20 08:58:32;;;;;;;11.98;8.07;;;16.80;40.10;;;;;;6133689;23;20164;-82
2021/01/20 09:01:01;;;;;;;12.13;7.97;;;16.80;40.20;;;;;;6084569;23;20654;-81
2021/01/20 09:03:31;;;;;;;11.82;7.88;;;16.80;40.10;;;;;;6108298;23;20231;-81
2021/01/20 09:06:02;;;;;;;12.20;8.15;;;16.80;40.20;;;;;;6133465;23;20140;-81
2021/01/20 09:08:30;;;;;;;13.80;8.75;;;16.80;40.20;;;;;;6107071;23;20476;-81
2021/01/20 09:10:58;;;;;;;11.45;8.32;;;16.80;40.20;;;;;;6106291;23;20171;-81
2021/01/20 09:13:25;;;;;;;14.90;8.23;;;16.80;40.10;;;;;;6132730;23;20140;-81
2021/01/20 09:15:54;;;;;;;11.95;7.93;;;16.80;40.10;;;;;;6133067;23;20140;-81
2021/01/20 09:18:22;;;;;;;13.57;8.43;;;16.80;40.10;;;;;;6106589;23;20172;-81
2021/01/20 09:20:48;;;;;;;11.93;8.27;;;16.90;40.10;;;;;;6131191;23;20132;-81
2021/01/20 09:23:15;;;;;;;12.18;8.48;;;16.80;40.10;;;;;;6137888;23;20143;-82
2021/01/20 09:25:41;;;;;;;12.48;8.55;;;16.80;40.20;;;;;;6108976;23;20205;-81
2021/01/20 09:28:09;;;;;;;11.95;8.13;;;16.80;40.30;;;;;;6108726;23;20140;-83
2021/01/20 09:30:36;;;;;;;12.00;8.43;;;16.70;40.40;;;;;;6106052;23;20560;-81
2021/01/20 09:33:03;;;;;;;13.77;8.65;;;16.70;40.40;;;;;;6106490;23;20219;-80
2021/01/20 09:35:29;;;;;;;12.07;7.85;;;16.80;40.40;;;;;;6134430;23;20191;-80
2021/01/20 09:38:01;;;;;;;12.68;8.48;;;16.80;40.30;;;;;;6087500;23;20148;-82
2021/01/20 09:40:38;;;;;;;11.10;8.13;;;16.90;40.20;;;;;;6067217;23;20179;-83
2021/01/20 09:43:20;;;;;;;12.23;8.07;;;16.90;40.30;;;;;;6092371;23;20171;-82
2021/01/20 09:45:55;;;;;;;11.95;8.05;;;16.90;40.10;;;;;;6090169;23;20155;-81
2021/01/20 09:48:22;;;;;;;11.82;8.68;;;16.90;40.10;;;;;;6089048;23;20178;-82
2021/01/20 09:51:19;;;;;;;11.23;8.13;;;16.90;40.10;;;;;;6112928;23;20157;-83
2021/01/20 09:54:21;;;;;;;12.52;8.20;;;16.90;40.20;;;;;;6022446;23;20219;-82
2021/01/20 09:57:22;;;;;;;12.32;8.20;;;16.80;40.20;;;;;;5911303;24;20318;-82
2021/01/20 09:59:52;;;;;;;12.40;8.13;;;16.90;40.10;;;;;;5908540;24;20247;-82
2021/01/20 10:02:31;;;;;;;12.25;8.43;;;16.80;40.10;;;;;;5910068;24;20146;-82
2021/01/20 10:05:11;;;;;;;12.05;8.50;;;16.90;40.20;;;;;;5909132;24;20297;-82
2021/01/20 10:07:55;;;;;;;11.00;7.45;;;16.80;40.40;;;;;;5911913;24;20162;-82
2021/01/20 10:10:53;;;;;;;12.55;8.50;;;16.80;40.40;;;;;;5910638;24;20150;-82
2021/01/20 10:16:41;;;;;;;12.52;8.43;;;16.90;40.50;;;;;;5912224;24;20173;-81
2021/01/20 10:19:20;;;;;;;12.00;8.13;;;16.90;40.40;;;;;;5911489;24;20653;-81
2021/01/20 10:22:30;;;;;;;13.68;8.75;;;16.80;40.50;;;;;;5889867;24;20255;-81
2021/01/20 10:25:08;;;;;;;12.70;8.60;;;16.90;40.70;;;;;;5868147;24;20161;-82
2021/01/20 10:27:44;;;;;;;11.75;8.27;;;16.90;40.50;;;;;;5888150;24;20153;-81
2021/01/20 10:33:55;;;;;;;12.00;8.35;;;17.00;40.50;;;;;;6140808;23;20164;-81
2021/01/20 10:43:18;;;;;;;13.07;8.55;;;16.90;40.50;;;;;;6142782;23;20194;-82
2021/01/20 10:46:48;;;;;;;;;;;;;;;;;;;;;
2021/01/20 11:07:01;;;;;;;13.07;8.70;;;16.90;40.60;;;;;;6052992;23;20583;-81
2021/01/20 11:20:32;;;;;;;16.17;8.40;;;17.00;40.50;;;;;;5995585;24;20190;-83
2021/01/20 11:23:19;;;;;;;20.50;8.85;;;17.00;40.50;;;;;;5995266;24;20140;-82
2021/01/20 11:29:13;;;;;;;16.55;8.55;;;16.90;40.60;;;;;;6051866;23;20621;-81
2021/01/20 11:32:00;;;;;;;17.30;8.68;;;17.00;40.50;;;;;;6029613;23;20473;-84
2021/01/20 11:41:45;;;;;;;13.65;8.75;;;17.00;40.60;;;;;;6048220;23;20205;-81
2021/01/20 11:57:40;;;;;;;14.70;9.65;;;17.00;40.50;;;;;;6140775;23;20147;-80
2021/01/20 12:00:34;;;;;;;13.55;8.80;;;17.00;40.50;;;;;;6092001;23;20199;-81
2021/01/20 12:09:48;;;;;;;15.60;9.00;;;17.00;40.60;;;;;;6139602;23;20155;-82
2021/01/20 12:12:18;;;;;;;16.50;9.77;;;16.90;40.60;;;;;;6116492;23;20140;-79
2021/01/20 12:14:44;;;;;;;13.60;8.98;;;16.90;40.50;;;;;;6141929;23;20159;-80
2021/01/20 12:17:12;;;;;;;13.43;9.48;;;17.00;40.50;;;;;;6090629;23;20148;-82
2021/01/20 12:19:38;;;;;;;15.07;9.05;;;17.00;40.50;;;;;;6092031;23;20155;-81
2021/01/20 12:22:04;;;;;;;14.02;8.82;;;17.00;40.60;;;;;;6064583;23;20160;-80
2021/01/20 12:24:38;;;;;;;14.90;9.55;;;16.90;40.80;;;;;;6066220;23;20144;-81
2021/01/20 12:27:04;;;;;;;14.40;8.98;;;16.90;40.80;;;;;;6089925;23;20182;-80
2021/01/20 12:29:30;;;;;;;12.98;8.98;;;16.90;40.80;;;;;;6088865;23;20180;-79
2021/01/20 12:31:59;;;;;;;15.45;9.52;;;16.90;40.80;;;;;;6115874;23;20140;-81
2021/01/20 12:34:25;;;;;;;14.60;9.60;;;16.90;40.80;;;;;;6066555;23;20171;-81
2021/01/20 12:36:52;;;;;;;16.20;9.00;;;16.90;40.70;;;;;;6086537;23;20136;-81
2021/01/20 12:39:23;;;;;;;13.50;9.10;;;16.90;40.80;;;;;;6071204;23;20262;-82
2021/01/20 12:41:49;;;;;;;17.90;9.93;;;16.90;40.70;;;;;;6091927;23;20196;-82
2021/01/20 12:44:14;;;;;;;20.70;10.07;;;17.00;40.80;;;;;;6064958;23;20137;-82
2021/01/20 12:46:40;;;;;;;22.42;9.05;;;17.00;40.70;;;;;;6069069;23;20180;-82
2021/01/20 12:49:06;;;;;;;16.02;9.13;;;17.00;40.70;;;;;;6069271;23;20141;-82
2021/01/20 12:51:32;;;;;;;23.58;10.20;;;16.90;40.90;;;;;;6070733;23;20148;-82
2021/01/20 12:54:01;;;;;;;23.30;9.60;;;16.90;40.90;;;;;;6070617;23;20149;-83
2021/01/20 12:56:30;;;;;;;20.90;9.90;;;17.00;40.80;;;;;;6067540;23;20164;-83
2021/01/20 12:58:57;;;;;;;24.75;9.45;;;17.00;40.80;;;;;;6113198;23;20160;-83
2021/01/20 13:01:24;;;;;;;20.08;10.52;;;17.00;40.80;;;;;;6088897;23;20160;-83
2021/01/20 13:03:55;;;;;;;23.27;9.73;;;16.90;40.90;;;;;;6087363;23;20516;-82
2021/01/20 13:06:29;;;;;;;25.08;10.25;;;16.90;40.80;;;;;;6089091;23;20155;-83
2021/01/20 13:08:56;;;;;;;23.23;10.10;;;16.90;40.90;;;;;;6112385;23;20232;-83
2021/01/20 13:11:22;;;;;;;20.25;9.50;;;16.90;40.90;;;;;;6087793;23;20149;-83
2021/01/20 13:13:49;;;;;;;19.35;9.77;;;17.00;40.90;;;;;;6111955;23;20153;-83
2021/01/20 13:16:16;;;;;;;22.88;10.07;;;17.00;40.80;;;;;;6087798;23;20213;-83
2021/01/20 13:18:49;;;;;;;22.83;10.45;;;17.00;40.80;;;;;;6063873;23;20180;-83
2021/01/20 13:21:17;;;;;;;25.77;9.73;;;17.00;40.80;;;;;;6063119;23;20149;-82
2021/01/20 13:23:45;;;;;;;26.30;10.13;;;17.00;40.80;;;;;;6062807;23;20469;-83
2021/01/20 13:26:20;;;;;;;26.92;9.77;;;17.00;40.80;;;;;;6061720;23;20144;-82
2021/01/20 13:28:54;;;;;;;18.98;9.70;;;17.00;40.80;;;;;;6111838;23;20141;-83
2021/01/20 13:31:24;;;;;;;20.02;9.73;;;17.00;40.80;;;;;;6087467;23;20149;-83
2021/01/20 13:33:56;;;;;;;17.55;9.52;;;17.00;40.90;;;;;;6112215;23;20153;-83
2021/01/20 13:36:32;;;;;;;23.30;10.32;;;17.00;40.90;;;;;;6090496;23;20153;-82
2021/01/20 13:38:59;;;;;;;20.23;10.10;;;17.00;40.80;;;;;;6112070;23;20168;-82
2021/01/20 13:41:24;;;;;;;17.25;10.52;;;17.00;40.70;;;;;;6070535;23;20196;-81
2021/01/20 13:43:50;;;;;;;17.60;9.73;;;17.00;40.70;;;;;;6073066;23;20216;-83
2021/01/20 13:46:25;;;;;;;20.02;10.13;;;17.10;40.60;;;;;;6093590;23;20143;-82
2021/01/20 13:48:54;;;;;;;16.10;9.55;;;17.00;40.70;;;;;;6069294;23;20178;-83
2021/01/20 13:51:21;;;;;;;15.88;9.40;;;17.10;40.70;;;;;;6143144;23;20140;-81
2021/01/20 13:53:50;;;;;;;17.25;10.10;;;17.00;40.80;;;;;;6070134;23;20186;-82
2021/01/20 13:56:17;;;;;;;17.42;9.73;;;17.00;40.60;;;;;;6113550;23;20223;-82
2021/01/20 13:58:43;;;;;;;16.77;9.77;;;17.00;40.70;;;;;;6090027;23;20164;-82
2021/01/20 14:01:09;;;;;;;18.75;9.55;;;17.00;40.80;;;;;;6091648;23;20186;-82
2021/01/20 14:03:35;;;;;;;16.02;9.65;;;17.00;40.80;;;;;;6091657;23;20169;-82
2021/01/20 14:06:01;;;;;;;15.90;9.38;;;17.00;41.60;;;;;;6091674;23;20139;-82
2021/01/20 14:08:28;;;;;;;17.17;9.93;;;16.80;41.00;;;;;;6066752;23;20156;-81
2021/01/20 14:10:54;;;;;;;26.20;10.45;;;16.90;40.90;;;;;;6091588;23;20137;-82
2021/01/20 14:13:23;;;;;;;16.80;10.00;;;17.00;40.70;;;;;;6092494;23;20143;-81
2021/01/20 14:15:58;;;;;;;17.17;9.98;;;17.00;40.80;;;;;;6090948;23;20155;-82
2021/01/20 14:18:31;;;;;;;17.65;10.25;;;17.00;40.80;;;;;;6091567;23;20154;-83